Thedford, Canada
Current Conditions -  °F | °C
As of 12:08 AM on Tuesday 27 Jan 2015 (Local Time) from CYZR Reporting Station
Scattered Clouds Scattered Clouds  
Wind Chill:   Ceiling: Unl
Heat Index: 12°   Visibility: 9mi
Dew Point:   Wind: 6mph
Humidity: 67%   Direction: 50°NE
Pressure: 29.99"   Gusts: NA
Location:  43.17°N, 81.85°W
Report Text: CYZR 270508Z AUTO 05005KT 9SM SCT033 M11/M16 A2999 RMK SLP167
Loading
Personal Weather Stations






























Interactive Weather Map New forecast layout! Learn more

10-Day Weather Forecast

Advertisements
Track Severe Weather on mobile